sensor_id;sensor_type;location;lat;lon;timestamp;pressure;altitude;pressure_sealevel;temperature;humidity
48606;BME280;8482;54.396;18.590;2023-03-15T00:01:12;99798.31;;;4.73;74.03
48606;BME280;8482;54.396;18.590;2023-03-15T00:03:42;99804.50;;;4.72;73.75
48606;BME280;8482;54.396;18.590;2023-03-15T00:06:09;99814.81;;;4.75;74.18
48606;BME280;8482;54.396;18.590;2023-03-15T00:08:35;99815.75;;;4.74;74.38
48606;BME280;8482;54.396;18.590;2023-03-15T00:11:02;99825.31;;;4.75;73.77
48606;BME280;8482;54.396;18.590;2023-03-15T00:13:28;99830.78;;;4.72;74.16
48606;BME280;8482;54.396;18.590;2023-03-15T00:16:00;99831.84;;;4.69;74.68
48606;BME280;8482;54.396;18.590;2023-03-15T00:18:28;99838.56;;;4.73;74.08
48606;BME280;8482;54.396;18.590;2023-03-15T00:20:55;99846.22;;;4.76;73.96
48606;BME280;8482;54.396;18.590;2023-03-15T00:23:20;99851.59;;;4.75;74.24
48606;BME280;8482;54.396;18.590;2023-03-15T00:25:49;99852.44;;;4.75;73.79
48606;BME280;8482;54.396;18.590;2023-03-15T00:28:16;99870.84;;;4.75;74.30
48606;BME280;8482;54.396;18.590;2023-03-15T00:30:42;99867.34;;;4.75;74.09
48606;BME280;8482;54.396;18.590;2023-03-15T00:33:10;99867.16;;;4.78;73.82
48606;BME280;8482;54.396;18.590;2023-03-15T00:35:40;99867.16;;;4.78;74.01
48606;BME280;8482;54.396;18.590;2023-03-15T00:38:08;99875.97;;;4.77;73.56
48606;BME280;8482;54.396;18.590;2023-03-15T00:40:36;99873.47;;;4.75;73.51
48606;BME280;8482;54.396;18.590;2023-03-15T00:43:02;99879.53;;;4.76;73.16
48606;BME280;8482;54.396;18.590;2023-03-15T00:45:28;99884.06;;;4.74;73.57
48606;BME280;8482;54.396;18.590;2023-03-15T00:47:54;99894.78;;;4.71;73.45
48606;BME280;8482;54.396;18.590;2023-03-15T00:50:22;99866.19;;;4.66;73.21
48606;BME280;8482;54.396;18.590;2023-03-15T00:52:48;99882.91;;;4.65;73.43
48606;BME280;8482;54.396;18.590;2023-03-15T00:55:17;99891.63;;;4.66;73.87
48606;BME280;8482;54.396;18.590;2023-03-15T00:57:45;99900.56;;;4.63;72.98
48606;BME280;8482;54.396;18.590;2023-03-15T01:00:19;99894.34;;;4.64;73.40
48606;BME280;8482;54.396;18.590;2023-03-15T01:02:45;99896.16;;;4.64;73.66
48606;BME280;8482;54.396;18.590;2023-03-15T01:05:11;99912.03;;;4.62;73.41
48606;BME280;8482;54.396;18.590;2023-03-15T01:07:38;99917.38;;;4.60;73.09
48606;BME280;8482;54.396;18.590;2023-03-15T01:10:05;99918.22;;;4.61;73.13
48606;BME280;8482;54.396;18.590;2023-03-15T01:12:33;99928.81;;;4.59;72.86
48606;BME280;8482;54.396;18.590;2023-03-15T01:15:03;99919.25;;;4.58;73.34
48606;BME280;8482;54.396;18.590;2023-03-15T01:17:29;99922.72;;;4.59;73.35
48606;BME280;8482;54.396;18.590;2023-03-15T01:19:55;99923.56;;;4.59;73.23
48606;BME280;8482;54.396;18.590;2023-03-15T01:22:21;99931.44;;;4.59;72.83
48606;BME280;8482;54.396;18.590;2023-03-15T01:24:47;99930.69;;;4.57;73.17
48606;BME280;8482;54.396;18.590;2023-03-15T01:27:13;99941.13;;;4.59;72.66
48606;BME280;8482;54.396;18.590;2023-03-15T01:29:39;99929.75;;;4.58;72.58
48606;BME280;8482;54.396;18.590;2023-03-15T01:32:06;99931.56;;;4.58;72.59
48606;BME280;8482;54.396;18.590;2023-03-15T01:34:32;99931.88;;;4.53;72.39
48606;BME280;8482;54.396;18.590;2023-03-15T01:36:58;99931.94;;;4.52;72.30
48606;BME280;8482;54.396;18.590;2023-03-15T01:39:25;99933.75;;;4.51;72.33
48606;BME280;8482;54.396;18.590;2023-03-15T01:41:51;99939.81;;;4.52;72.41
48606;BME280;8482;54.396;18.590;2023-03-15T01:44:18;99947.81;;;4.50;72.27
48606;BME280;8482;54.396;18.590;2023-03-15T01:46:45;99950.56;;;4.49;72.16
48606;BME280;8482;54.396;18.590;2023-03-15T01:54:41;99966.59;;;4.44;72.30
48606;BME280;8482;54.396;18.590;2023-03-15T01:57:34;99975.53;;;4.41;71.96
48606;BME280;8482;54.396;18.590;2023-03-15T02:00:12;99973.22;;;4.37;71.64
48606;BME280;8482;54.396;18.590;2023-03-15T02:03:08;99978.56;;;4.35;71.78
48606;BME280;8482;54.396;18.590;2023-03-15T02:05:52;99993.59;;;4.33;71.83
48606;BME280;8482;54.396;18.590;2023-03-15T02:08:25;99986.66;;;4.32;71.79
48606;BME280;8482;54.396;18.590;2023-03-15T02:10:57;99988.41;;;4.32;71.92
48606;BME280;8482;54.396;18.590;2023-03-15T02:13:27;100006.78;;;4.32;72.28
48606;BME280;8482;54.396;18.590;2023-03-15T02:15:54;100008.47;;;4.33;72.17
48606;BME280;8482;54.396;18.590;2023-03-15T02:18:22;100020.84;;;4.30;71.66
48606;BME280;8482;54.396;18.590;2023-03-15T02:21:27;100023.59;;;4.29;71.51
48606;BME280;8482;54.396;18.590;2023-03-15T02:23:48;100029.97;;;4.25;70.92
48606;BME280;8482;54.396;18.590;2023-03-15T02:26:43;100034.28;;;4.26;71.27
48606;BME280;8482;54.396;18.590;2023-03-15T02:29:10;100036.09;;;4.25;71.27
48606;BME280;8482;54.396;18.590;2023-03-15T02:31:36;100059.72;;;4.25;71.08
48606;BME280;8482;54.396;18.590;2023-03-15T02:34:05;100054.47;;;4.25;70.85
48606;BME280;8482;54.396;18.590;2023-03-15T02:36:34;100055.41;;;4.24;70.96
48606;BME280;8482;54.396;18.590;2023-03-15T02:39:12;100065.03;;;4.24;71.33
48606;BME280;8482;54.396;18.590;2023-03-15T02:41:43;100065.16;;;4.22;71.26
48606;BME280;8482;54.396;18.590;2023-03-15T02:44:26;100076.59;;;4.21;71.30
48606;BME280;8482;54.396;18.590;2023-03-15T02:47:00;100075.00;;;4.19;71.54
48606;BME280;8482;54.396;18.590;2023-03-15T02:49:36;100082.13;;;4.17;72.05
48606;BME280;8482;54.396;18.590;2023-03-15T02:52:02;100090.84;;;4.17;71.62
48606;BME280;8482;54.396;18.590;2023-03-15T02:54:28;100096.09;;;4.17;71.74
48606;BME280;8482;54.396;18.590;2023-03-15T02:56:54;100091.06;;;4.14;72.08
48606;BME280;8482;54.396;18.590;2023-03-15T02:59:20;100086.75;;;4.13;71.92
48606;BME280;8482;54.396;18.590;2023-03-15T03:01:46;100096.38;;;4.12;72.23
48606;BME280;8482;54.396;18.590;2023-03-15T03:04:12;100104.38;;;4.11;71.57
48606;BME280;8482;54.396;18.590;2023-03-15T03:06:38;100115.03;;;4.08;71.70
48606;BME280;8482;54.396;18.590;2023-03-15T03:09:04;100119.47;;;4.07;72.06
48606;BME280;8482;54.396;18.590;2023-03-15T03:11:30;100127.34;;;4.07;72.08
48606;BME280;8482;54.396;18.590;2023-03-15T03:13:56;100134.47;;;4.05;71.94
48606;BME280;8482;54.396;18.590;2023-03-15T03:16:21;100148.41;;;4.06;71.80
48606;BME280;8482;54.396;18.590;2023-03-15T03:18:47;100145.91;;;4.04;72.17
48606;BME280;8482;54.396;18.590;2023-03-15T03:21:13;100163.34;;;4.05;72.14
48606;BME280;8482;54.396;18.590;2023-03-15T03:23:40;100163.50;;;4.02;71.77
48606;BME280;8482;54.396;18.590;2023-03-15T03:26:14;100161.00;;;4.01;72.24
48606;BME280;8482;54.396;18.590;2023-03-15T03:28:45;100173.19;;;4.02;72.08
48606;BME280;8482;54.396;18.590;2023-03-15T03:31:19;100168.09;;;3.98;71.98
48606;BME280;8482;54.396;18.590;2023-03-15T03:33:46;100182.28;;;3.96;71.70
48606;BME280;8482;54.396;18.590;2023-03-15T03:36:12;100181.59;;;3.92;71.86
48606;BME280;8482;54.396;18.590;2023-03-15T03:38:44;100185.16;;;3.91;71.82
48606;BME280;8482;54.396;18.590;2023-03-15T03:41:12;100195.56;;;3.93;72.35
48606;BME280;8482;54.396;18.590;2023-03-15T03:43:39;100200.88;;;3.91;72.10
48606;BME280;8482;54.396;18.590;2023-03-15T03:46:06;100203.63;;;3.90;72.12
48606;BME280;8482;54.396;18.590;2023-03-15T03:48:32;100208.88;;;3.90;72.18
48606;BME280;8482;54.396;18.590;2023-03-15T03:50:58;100220.22;;;3.90;72.76
48606;BME280;8482;54.396;18.590;2023-03-15T03:53:24;100235.09;;;3.90;72.17
48606;BME280;8482;54.396;18.590;2023-03-15T03:55:50;100228.28;;;3.87;72.57
48606;BME280;8482;54.396;18.590;2023-03-15T03:58:16;100237.84;;;3.88;72.43
48606;BME280;8482;54.396;18.590;2023-03-15T04:00:42;100245.72;;;3.88;72.28
48606;BME280;8482;54.396;18.590;2023-03-15T04:03:08;100254.50;;;3.87;72.55
48606;BME280;8482;54.396;18.590;2023-03-15T04:05:35;100265.84;;;3.88;72.51
48606;BME280;8482;54.396;18.590;2023-03-15T04:08:01;100269.31;;;3.88;72.34
48606;BME280;8482;54.396;18.590;2023-03-15T04:10:27;100280.56;;;3.90;72.39
48606;BME280;8482;54.396;18.590;2023-03-15T04:12:54;100286.75;;;3.89;73.15
48606;BME280;8482;54.396;18.590;2023-03-15T04:15:20;100282.44;;;3.88;72.88
48606;BME280;8482;54.396;18.590;2023-03-15T04:17:51;100297.31;;;3.88;73.42
48606;BME280;8482;54.396;18.590;2023-03-15T04:20:25;100296.50;;;3.87;73.93
48606;BME280;8482;54.396;18.590;2023-03-15T04:22:52;100299.94;;;3.88;73.88
48606;BME280;8482;54.396;18.590;2023-03-15T04:25:20;100306.22;;;3.85;73.69
48606;BME280;8482;54.396;18.590;2023-03-15T04:27:46;100317.81;;;3.81;73.37
48606;BME280;8482;54.396;18.590;2023-03-15T04:30:30;100324.09;;;3.78;73.23
48606;BME280;8482;54.396;18.590;2023-03-15T04:32:56;100329.44;;;3.77;73.53
48606;BME280;8482;54.396;18.590;2023-03-15T04:35:31;100336.56;;;3.75;73.94
48606;BME280;8482;54.396;18.590;2023-03-15T04:37:57;100336.91;;;3.68;74.07
48606;BME280;8482;54.396;18.590;2023-03-15T04:40:24;100344.00;;;3.66;73.93
48606;BME280;8482;54.396;18.590;2023-03-15T04:42:51;100346.81;;;3.63;74.27
48606;BME280;8482;54.396;18.590;2023-03-15T04:45:23;100345.28;;;3.59;74.18
48606;BME280;8482;54.396;18.590;2023-03-15T04:47:51;100349.00;;;3.55;74.79
48606;BME280;8482;54.396;18.590;2023-03-15T04:50:18;100346.56;;;3.52;74.40
48606;BME280;8482;54.396;18.590;2023-03-15T04:52:44;100352.91;;;3.48;74.85
48606;BME280;8482;54.396;18.590;2023-03-15T04:55:11;100352.22;;;3.44;74.98
48606;BME280;8482;54.396;18.590;2023-03-15T04:57:38;100349.69;;;3.43;74.98
48606;BME280;8482;54.396;18.590;2023-03-15T05:00:06;100344.72;;;3.38;75.33
48606;BME280;8482;54.396;18.590;2023-03-15T05:02:33;100356.13;;;3.37;75.35
48606;BME280;8482;54.396;18.590;2023-03-15T05:05:00;100367.53;;;3.36;75.96
48606;BME280;8482;54.396;18.590;2023-03-15T05:07:26;100371.94;;;3.35;75.68
48606;BME280;8482;54.396;18.590;2023-03-15T05:09:52;100366.97;;;3.31;75.90
48606;BME280;8482;54.396;18.590;2023-03-15T05:12:18;100370.41;;;3.31;76.14
48606;BME280;8482;54.396;18.590;2023-03-15T05:14:43;100378.28;;;3.31;76.14
48606;BME280;8482;54.396;18.590;2023-03-15T05:17:09;100376.50;;;3.32;76.15
48606;BME280;8482;54.396;18.590;2023-03-15T05:19:35;100373.19;;;3.28;76.18
48606;BME280;8482;54.396;18.590;2023-03-15T05:22:02;100383.53;;;3.31;76.18
48606;BME280;8482;54.396;18.590;2023-03-15T05:24:29;100390.56;;;3.31;76.43
48606;BME280;8482;54.396;18.590;2023-03-15T05:26:55;100387.94;;;3.31;75.83
48606;BME280;8482;54.396;18.590;2023-03-15T05:29:22;100397.47;;;3.32;76.08
48606;BME280;8482;54.396;18.590;2023-03-15T05:31:49;100400.03;;;3.33;75.83
48606;BME280;8482;54.396;18.590;2023-03-15T05:34:18;100399.16;;;3.33;76.03
48606;BME280;8482;54.396;18.590;2023-03-15T05:36:44;100406.03;;;3.35;75.56
48606;BME280;8482;54.396;18.590;2023-03-15T05:39:10;100425.22;;;3.36;75.87
48606;BME280;8482;54.396;18.590;2023-03-15T05:41:41;100438.25;;;3.37;75.89
48606;BME280;8482;54.396;18.590;2023-03-15T05:44:07;100432.00;;;3.40;74.86
48606;BME280;8482;54.396;18.590;2023-03-15T05:46:33;100431.13;;;3.40;75.06
48606;BME280;8482;54.396;18.590;2023-03-15T05:48:59;100419.72;;;3.41;75.08
48606;BME280;8482;54.396;18.590;2023-03-15T05:51:25;100434.53;;;3.42;74.50
48606;BME280;8482;54.396;18.590;2023-03-15T05:53:51;100444.97;;;3.43;74.10
48606;BME280;8482;54.396;18.590;2023-03-15T05:56:16;100462.19;;;3.47;74.10
48606;BME280;8482;54.396;18.590;2023-03-15T05:58:42;100474.38;;;3.48;73.94
48606;BME280;8482;54.396;18.590;2023-03-15T06:01:08;100469.13;;;3.48;73.89
48606;BME280;8482;54.396;18.590;2023-03-15T06:03:34;100463.06;;;3.48;73.58
48606;BME280;8482;54.396;18.590;2023-03-15T06:06:00;100485.47;;;3.53;73.76
48606;BME280;8482;54.396;18.590;2023-03-15T06:08:26;100491.56;;;3.54;73.33
48606;BME280;8482;54.396;18.590;2023-03-15T06:10:52;100487.09;;;3.56;73.63
48606;BME280;8482;54.396;18.590;2023-03-15T06:13:18;100486.16;;;3.57;73.11
48606;BME280;8482;54.396;18.590;2023-03-15T06:15:46;100494.19;;;3.54;73.26
48606;BME280;8482;54.396;18.590;2023-03-15T06:18:12;100503.75;;;3.55;72.42
48606;BME280;8482;54.396;18.590;2023-03-15T06:20:39;100502.00;;;3.56;72.31
48606;BME280;8482;54.396;18.590;2023-03-15T06:23:06;100512.38;;;3.57;72.66
48606;BME280;8482;54.396;18.590;2023-03-15T06:25:32;100508.75;;;3.60;72.66
48606;BME280;8482;54.396;18.590;2023-03-15T06:27:57;100525.94;;;3.65;72.72
48606;BME280;8482;54.396;18.590;2023-03-15T06:30:23;100520.47;;;3.70;72.37
48606;BME280;8482;54.396;18.590;2023-03-15T06:32:50;100536.00;;;3.73;72.59
48606;BME280;8482;54.396;18.590;2023-03-15T06:35:17;100529.78;;;3.76;72.39
48606;BME280;8482;54.396;18.590;2023-03-15T06:37:43;100527.81;;;3.79;72.26
48606;BME280;8482;54.396;18.590;2023-03-15T06:40:10;100525.03;;;3.82;72.75
48606;BME280;8482;54.396;18.590;2023-03-15T06:42:38;100537.97;;;3.86;72.16
48606;BME280;8482;54.396;18.590;2023-03-15T06:45:05;100540.38;;;3.90;71.81
48606;BME280;8482;54.396;18.590;2023-03-15T06:47:31;100548.91;;;3.94;71.85
48606;BME280;8482;54.396;18.590;2023-03-15T06:49:57;100548.81;;;3.95;71.88
48606;BME280;8482;54.396;18.590;2023-03-15T06:52:23;100560.00;;;3.99;72.01
48606;BME280;8482;54.396;18.590;2023-03-15T06:54:49;100563.31;;;4.03;71.71
48606;BME280;8482;54.396;18.590;2023-03-15T06:57:15;100562.47;;;4.02;71.35
48606;BME280;8482;54.396;18.590;2023-03-15T06:59:41;100563.13;;;4.06;71.29
48606;BME280;8482;54.396;18.590;2023-03-15T07:02:17;100571.09;;;4.04;71.27
48606;BME280;8482;54.396;18.590;2023-03-15T07:04:44;100583.13;;;4.08;71.03
48606;BME280;8482;54.396;18.590;2023-03-15T07:07:11;100585.66;;;4.10;71.39
48606;BME280;8482;54.396;18.590;2023-03-15T07:09:37;100590.81;;;4.11;70.84
48606;BME280;8482;54.396;18.590;2023-03-15T07:12:04;100596.06;;;4.11;70.68
48606;BME280;8482;54.396;18.590;2023-03-15T07:14:30;100603.94;;;4.11;71.21
48606;BME280;8482;54.396;18.590;2023-03-15T07:16:57;100596.94;;;4.12;71.44
48606;BME280;8482;54.396;18.590;2023-03-15T07:19:23;100611.75;;;4.13;70.90
48606;BME280;8482;54.396;18.590;2023-03-15T07:21:49;100611.81;;;4.11;71.13
48606;BME280;8482;54.396;18.590;2023-03-15T07:24:15;100631.06;;;4.12;71.29
48606;BME280;8482;54.396;18.590;2023-03-15T07:26:41;100618.72;;;4.14;70.90
48606;BME280;8482;54.396;18.590;2023-03-15T07:29:07;100619.53;;;4.14;70.82
48606;BME280;8482;54.396;18.590;2023-03-15T07:31:32;100616.84;;;4.16;71.18
48606;BME280;8482;54.396;18.590;2023-03-15T07:33:58;100624.63;;;4.18;71.68
48606;BME280;8482;54.396;18.590;2023-03-15T07:36:24;100629.88;;;4.18;70.85
48606;BME280;8482;54.396;18.590;2023-03-15T07:38:50;100623.25;;;4.10;70.49
48606;BME280;8482;54.396;18.590;2023-03-15T07:41:16;100633.53;;;4.15;70.89
48606;BME280;8482;54.396;18.590;2023-03-15T07:43:42;100619.53;;;4.14;70.87
48606;BME280;8482;54.396;18.590;2023-03-15T07:46:09;100627.34;;;4.16;71.02
48606;BME280;8482;54.396;18.590;2023-03-15T07:48:35;100642.09;;;4.19;70.24
48606;BME280;8482;54.396;18.590;2023-03-15T07:51:00;100640.38;;;4.18;70.35
48606;BME280;8482;54.396;18.590;2023-03-15T07:53:26;100641.94;;;4.22;70.55
48606;BME280;8482;54.396;18.590;2023-03-15T07:55:52;100647.91;;;4.24;70.52
48606;BME280;8482;54.396;18.590;2023-03-15T07:58:18;100650.47;;;4.25;70.39
48606;BME280;8482;54.396;18.590;2023-03-15T08:00:44;100647.69;;;4.28;69.74
48606;BME280;8482;54.396;18.590;2023-03-15T08:03:10;100672.84;;;4.33;69.54
48606;BME280;8482;54.396;18.590;2023-03-15T08:05:36;100665.47;;;4.39;69.96
48606;BME280;8482;54.396;18.590;2023-03-15T08:08:02;100668.97;;;4.40;68.81
48606;BME280;8482;54.396;18.590;2023-03-15T08:10:28;100676.59;;;4.44;68.71
48606;BME280;8482;54.396;18.590;2023-03-15T08:12:54;100676.34;;;4.49;68.40
48606;BME280;8482;54.396;18.590;2023-03-15T08:15:20;100682.19;;;4.54;68.51
48606;BME280;8482;54.396;18.590;2023-03-15T08:17:47;100676.69;;;4.59;68.89
48606;BME280;8482;54.396;18.590;2023-03-15T08:20:14;100681.69;;;4.64;68.60
48606;BME280;8482;54.396;18.590;2023-03-15T08:22:44;100689.31;;;4.68;68.31
48606;BME280;8482;54.396;18.590;2023-03-15T08:25:12;100691.78;;;4.71;67.38
48606;BME280;8482;54.396;18.590;2023-03-15T08:27:40;100696.59;;;4.79;67.54
48606;BME280;8482;54.396;18.590;2023-03-15T08:30:12;100705.06;;;4.84;67.79
48606;BME280;8482;54.396;18.590;2023-03-15T08:32:43;100693.34;;;4.90;67.30
48606;BME280;8482;54.396;18.590;2023-03-15T08:35:11;100703.63;;;4.95;67.13
48606;BME280;8482;54.396;18.590;2023-03-15T08:37:38;100711.59;;;4.93;66.09
48606;BME280;8482;54.396;18.590;2023-03-15T08:40:06;100715.84;;;4.96;66.13
48606;BME280;8482;54.396;18.590;2023-03-15T08:42:38;100725.41;;;4.97;65.97
48606;BME280;8482;54.396;18.590;2023-03-15T08:45:07;100731.34;;;5.00;65.95
48606;BME280;8482;54.396;18.590;2023-03-15T08:47:34;100728.47;;;5.05;65.26
48606;BME280;8482;54.396;18.590;2023-03-15T08:50:06;100746.72;;;5.08;64.66
48606;BME280;8482;54.396;18.590;2023-03-15T08:52:33;100742.94;;;5.12;64.47
48606;BME280;8482;54.396;18.590;2023-03-15T08:54:59;100745.31;;;5.17;64.05
48606;BME280;8482;54.396;18.590;2023-03-15T08:57:24;100752.88;;;5.23;64.05
48606;BME280;8482;54.396;18.590;2023-03-15T08:59:52;100756.16;;;5.27;64.50
48606;BME280;8482;54.396;18.590;2023-03-15T09:02:18;100764.66;;;5.32;63.44
48606;BME280;8482;54.396;18.590;2023-03-15T09:04:44;100771.53;;;5.34;61.85
48606;BME280;8482;54.396;18.590;2023-03-15T09:07:10;100774.81;;;5.38;61.95
48606;BME280;8482;54.396;18.590;2023-03-15T09:09:38;100781.59;;;5.42;61.89
48606;BME280;8482;54.396;18.590;2023-03-15T09:12:04;100786.59;;;5.47;61.27
48606;BME280;8482;54.396;18.590;2023-03-15T09:14:30;100812.09;;;5.46;60.08
48606;BME280;8482;54.396;18.590;2023-03-15T09:16:56;100796.28;;;5.46;59.50
48606;BME280;8482;54.396;18.590;2023-03-15T09:19:22;100804.19;;;5.46;58.90
48606;BME280;8482;54.396;18.590;2023-03-15T09:21:47;100816.47;;;5.46;59.33
48606;BME280;8482;54.396;18.590;2023-03-15T09:24:13;100805.88;;;5.47;58.41
48606;BME280;8482;54.396;18.590;2023-03-15T09:26:39;100813.34;;;5.55;58.64
48606;BME280;8482;54.396;18.590;2023-03-15T09:29:06;100819.13;;;5.62;59.48
48606;BME280;8482;54.396;18.590;2023-03-15T09:31:34;100816.00;;;5.70;59.22
48606;BME280;8482;54.396;18.590;2023-03-15T09:34:00;100825.38;;;5.75;57.53
48606;BME280;8482;54.396;18.590;2023-03-15T09:36:26;100827.91;;;5.77;57.38
48606;BME280;8482;54.396;18.590;2023-03-15T09:38:52;100823.41;;;5.79;56.63
48606;BME280;8482;54.396;18.590;2023-03-15T09:41:43;100818.91;;;5.81;56.49
48606;BME280;8482;54.396;18.590;2023-03-15T09:47:00;100826.41;;;6.03;57.42
48606;BME280;8482;54.396;18.590;2023-03-15T09:55:12;100840.69;;;6.29;55.78
48606;BME280;8482;54.396;18.590;2023-03-15T09:57:52;100839.75;;;6.31;55.71
48606;BME280;8482;54.396;18.590;2023-03-15T10:00:50;100835.41;;;6.29;55.71
48606;BME280;8482;54.396;18.590;2023-03-15T10:03:28;100839.63;;;6.32;55.54
48606;BME280;8482;54.396;18.590;2023-03-15T10:06:02;100850.00;;;6.35;56.48
48606;BME280;8482;54.396;18.590;2023-03-15T10:08:30;100850.47;;;6.42;56.06
48606;BME280;8482;54.396;18.590;2023-03-15T10:11:11;100847.28;;;6.51;56.23
48606;BME280;8482;54.396;18.590;2023-03-15T10:16:43;100857.28;;;6.75;56.38
48606;BME280;8482;54.396;18.590;2023-03-15T10:19:44;100858.44;;;6.85;56.43
48606;BME280;8482;54.396;18.590;2023-03-15T10:25:16;100873.09;;;7.04;55.32
48606;BME280;8482;54.396;18.590;2023-03-15T10:30:33;100874.31;;;7.13;54.61
48606;BME280;8482;54.396;18.590;2023-03-15T10:33:17;100882.22;;;7.13;53.59
48606;BME280;8482;54.396;18.590;2023-03-15T10:35:45;100876.19;;;7.11;53.21
48606;BME280;8482;54.396;18.590;2023-03-15T10:38:21;100883.09;;;7.13;52.74
48606;BME280;8482;54.396;18.590;2023-03-15T10:43:18;100892.19;;;7.22;51.72
48606;BME280;8482;54.396;18.590;2023-03-15T10:46:24;100902.38;;;7.28;51.30
48606;BME280;8482;54.396;18.590;2023-03-15T10:51:46;100908.22;;;7.33;50.42
48606;BME280;8482;54.396;18.590;2023-03-15T10:54:18;100912.81;;;7.30;49.38
48606;BME280;8482;54.396;18.590;2023-03-15T10:59:24;100916.69;;;7.24;49.02
48606;BME280;8482;54.396;18.590;2023-03-15T11:02:22;100916.91;;;7.21;48.42
48606;BME280;8482;54.396;18.590;2023-03-15T11:05:22;100926.91;;;7.16;48.71
48606;BME280;8482;54.396;18.590;2023-03-15T11:07:59;100926.25;;;7.12;48.67
48606;BME280;8482;54.396;18.590;2023-03-15T11:10:28;100924.53;;;7.11;48.26
48606;BME280;8482;54.396;18.590;2023-03-15T11:13:19;100934.16;;;7.12;48.33
48606;BME280;8482;54.396;18.590;2023-03-15T11:18:46;100918.59;;;7.22;48.68
48606;BME280;8482;54.396;18.590;2023-03-15T11:21:16;100918.88;;;7.32;48.24
48606;BME280;8482;54.396;18.590;2023-03-15T11:23:48;100921.38;;;7.48;47.94
48606;BME280;8482;54.396;18.590;2023-03-15T11:26:23;100923.91;;;7.64;47.50
48606;BME280;8482;54.396;18.590;2023-03-15T11:28:55;100926.41;;;7.80;47.01
48606;BME280;8482;54.396;18.590;2023-03-15T11:31:26;100918.75;;;7.90;46.45
48606;BME280;8482;54.396;18.590;2023-03-15T11:36:44;100924.19;;;8.14;45.50
48606;BME280;8482;54.396;18.590;2023-03-15T11:39:14;100930.03;;;8.19;45.39
48606;BME280;8482;54.396;18.590;2023-03-15T11:42:02;100934.19;;;8.23;45.22
48606;BME280;8482;54.396;18.590;2023-03-15T11:44:49;100943.06;;;8.22;45.19
48606;BME280;8482;54.396;18.590;2023-03-15T11:49:57;100953.47;;;8.11;43.79
48606;BME280;8482;54.396;18.590;2023-03-15T11:52:27;100947.34;;;8.10;43.70
48606;BME280;8482;54.396;18.590;2023-03-15T11:54:57;100948.53;;;8.19;43.91
48606;BME280;8482;54.396;18.590;2023-03-15T11:57:43;100952.81;;;8.35;44.36
48606;BME280;8482;54.396;18.590;2023-03-15T12:08:54;100958.44;;;8.96;43.14
48606;BME280;8482;54.396;18.590;2023-03-15T12:16:47;100966.66;;;9.43;41.26
48606;BME280;8482;54.396;18.590;2023-03-15T12:19:17;100974.47;;;9.45;40.95
48606;BME280;8482;54.396;18.590;2023-03-15T12:21:51;100978.19;;;9.42;40.96
48606;BME280;8482;54.396;18.590;2023-03-15T12:24:36;100983.41;;;9.31;41.20
48606;BME280;8482;54.396;18.590;2023-03-15T12:27:14;100979.88;;;9.30;40.74
48606;BME280;8482;54.396;18.590;2023-03-15T12:29:44;100987.50;;;9.35;40.57
48606;BME280;8482;54.396;18.590;2023-03-15T12:32:17;100987.50;;;9.48;39.77
48606;BME280;8482;54.396;18.590;2023-03-15T12:34:52;100991.59;;;9.65;39.15
48606;BME280;8482;54.396;18.590;2023-03-15T12:40:38;100985.78;;;9.97;38.39
48606;BME280;8482;54.396;18.590;2023-03-15T12:43:04;100992.28;;;10.17;38.46
48606;BME280;8482;54.396;18.590;2023-03-15T12:45:38;100980.00;;;10.40;37.93
48606;BME280;8482;54.396;18.590;2023-03-15T12:53:37;101003.97;;;11.10;37.15
48606;BME280;8482;54.396;18.590;2023-03-15T12:58:48;101007.97;;;11.39;37.36
48606;BME280;8482;54.396;18.590;2023-03-15T13:01:17;101018.81;;;11.58;37.45
48606;BME280;8482;54.396;18.590;2023-03-15T13:03:44;101007.47;;;11.79;36.34
48606;BME280;8482;54.396;18.590;2023-03-15T13:06:49;101003.69;;;12.04;35.83
48606;BME280;8482;54.396;18.590;2023-03-15T13:16:00;101025.13;;;12.89;32.74
48606;BME280;8482;54.396;18.590;2023-03-15T13:18:39;101016.94;;;13.23;31.88
48606;BME280;8482;54.396;18.590;2023-03-15T13:21:22;101029.16;;;13.57;31.38
48606;BME280;8482;54.396;18.590;2023-03-15T13:23:51;101022.69;;;13.49;31.68
48606;BME280;8482;54.396;18.590;2023-03-15T13:26:27;101033.91;;;13.32;31.91
48606;BME280;8482;54.396;18.590;2023-03-15T13:29:09;101030.19;;;12.92;32.99
48606;BME280;8482;54.396;18.590;2023-03-15T13:31:37;101041.41;;;12.75;33.41
48606;BME280;8482;54.396;18.590;2023-03-15T13:34:21;101047.28;;;12.90;33.50
48606;BME280;8482;54.396;18.590;2023-03-15T13:36:55;101045.59;;;12.88;33.91
48606;BME280;8482;54.396;18.590;2023-03-15T13:39:26;101052.44;;;13.33;34.28
48606;BME280;8482;54.396;18.590;2023-03-15T13:42:02;101052.69;;;14.53;32.92
48606;BME280;8482;54.396;18.590;2023-03-15T13:44:32;101051.81;;;14.62;32.15
48606;BME280;8482;54.396;18.590;2023-03-15T13:46:59;101061.78;;;14.21;32.35
48606;BME280;8482;54.396;18.590;2023-03-15T13:49:31;101060.63;;;13.63;33.29
48606;BME280;8482;54.396;18.590;2023-03-15T13:52:00;101051.94;;;14.21;33.32
48606;BME280;8482;54.396;18.590;2023-03-15T13:54:32;101060.50;;;15.71;31.32
48606;BME280;8482;54.396;18.590;2023-03-15T13:57:20;101055.56;;;17.30;28.83
48606;BME280;8482;54.396;18.590;2023-03-15T14:00:12;101061.66;;;17.84;28.27
48606;BME280;8482;54.396;18.590;2023-03-15T14:05:14;101072.47;;;19.82;26.04
48606;BME280;8482;54.396;18.590;2023-03-15T14:07:45;101059.28;;;20.82;24.89
48606;BME280;8482;54.396;18.590;2023-03-15T14:10:29;101068.72;;;21.69;23.98
48606;BME280;8482;54.396;18.590;2023-03-15T14:12:58;101069.88;;;21.97;23.44
48606;BME280;8482;54.396;18.590;2023-03-15T14:15:43;101070.84;;;21.89;22.67
48606;BME280;8482;54.396;18.590;2023-03-15T14:20:44;101079.25;;;21.11;23.45
48606;BME280;8482;54.396;18.590;2023-03-15T14:23:17;101083.03;;;21.55;23.11
48606;BME280;8482;54.396;18.590;2023-03-15T14:26:26;101091.25;;;22.43;22.53
48606;BME280;8482;54.396;18.590;2023-03-15T14:29:17;101087.31;;;23.18;21.56
48606;BME280;8482;54.396;18.590;2023-03-15T14:31:49;101095.84;;;23.43;21.24